createdAt,value
2018-05-14T00:00:07.438Z,11.90
2018-05-14T00:02:37.101Z,12.00
2018-05-14T00:05:06.691Z,12.00
2018-05-14T00:07:36.314Z,12.00
2018-05-14T00:10:05.631Z,12.00
2018-05-14T00:12:38.765Z,12.00
2018-05-14T00:15:10.369Z,12.00
2018-05-14T00:17:38.754Z,11.90
2018-05-14T00:20:06.253Z,11.80
2018-05-14T00:22:33.967Z,11.80
2018-05-14T00:25:01.487Z,11.70
2018-05-14T00:27:30.118Z,11.70
2018-05-14T00:29:58.811Z,11.70
2018-05-14T00:32:26.565Z,11.70
2018-05-14T00:34:54.083Z,11.70
2018-05-14T00:37:22.713Z,11.70
2018-05-14T00:39:58.725Z,11.70
2018-05-14T00:42:30.225Z,11.60
2018-05-14T00:44:58.889Z,11.70
2018-05-14T00:47:38.057Z,11.70
2018-05-14T00:50:06.965Z,11.70
2018-05-14T00:52:36.655Z,11.80
2018-05-14T00:55:17.039Z,11.80
2018-05-14T00:57:49.687Z,11.80
2018-05-14T01:00:32.149Z,11.80
2018-05-14T01:03:03.877Z,11.70
2018-05-14T01:05:31.413Z,11.80
2018-05-14T01:08:00.094Z,11.80
2018-05-14T01:10:28.781Z,11.80
2018-05-14T01:12:56.316Z,11.80
2018-05-14T01:15:24.025Z,11.80
2018-05-14T01:17:52.679Z,11.80
2018-05-14T01:20:24.139Z,11.80
2018-05-14T01:22:56.807Z,11.80
2018-05-14T01:25:34.405Z,11.80
2018-05-14T01:28:03.154Z,11.80
2018-05-14T01:30:32.737Z,11.90
2018-05-14T01:33:01.435Z,11.80
2018-05-14T01:35:35.579Z,11.80
2018-05-14T01:38:03.883Z,11.80
2018-05-14T01:40:33.611Z,11.70
2018-05-14T01:43:01.124Z,11.80
2018-05-14T01:45:29.464Z,11.80
2018-05-14T01:47:56.962Z,11.80
2018-05-14T01:50:28.038Z,11.90
2018-05-14T01:52:57.661Z,11.90
2018-05-14T01:55:26.349Z,11.80
2018-05-14T01:57:55.973Z,11.80
2018-05-14T02:00:31.200Z,11.90
2018-05-14T02:03:03.477Z,11.80
2018-05-14T02:05:31.828Z,11.90
2018-05-14T02:08:11.902Z,11.80
2018-05-14T02:10:41.194Z,11.90
2018-05-14T02:13:15.728Z,11.90
2018-05-14T02:15:43.238Z,11.90
2018-05-14T02:18:12.469Z,11.90
2018-05-14T02:20:52.792Z,11.90
2018-05-14T02:23:23.056Z,11.90
2018-05-14T02:25:50.580Z,11.90
2018-05-14T02:28:22.596Z,11.90
2018-05-14T02:30:51.278Z,11.80
2018-05-14T02:33:25.607Z,11.90
2018-05-14T02:35:54.176Z,11.80
2018-05-14T02:38:21.687Z,11.80
2018-05-14T02:40:53.103Z,11.80
2018-05-14T02:43:23.925Z,11.80
2018-05-14T02:45:51.438Z,11.90
2018-05-14T02:48:23.777Z,11.90
2018-05-14T02:50:51.314Z,11.90
2018-05-14T02:53:18.990Z,11.90
2018-05-14T02:55:51.949Z,11.90
2018-05-14T02:58:23.754Z,12.00
2018-05-14T03:00:56.748Z,11.80
2018-05-14T03:03:24.494Z,11.80
2018-05-14T03:05:54.087Z,11.90
2018-05-14T03:08:26.185Z,12.00
2018-05-14T03:10:53.922Z,12.00
2018-05-14T03:13:22.877Z,11.90
2018-05-14T03:15:52.562Z,12.00
2018-05-14T03:18:24.019Z,11.90
2018-05-14T03:20:53.589Z,11.80
2018-05-14T03:23:25.901Z,11.80
2018-05-14T03:25:53.417Z,11.80
2018-05-14T03:28:20.954Z,11.70
2018-05-14T03:30:50.523Z,11.60
2018-05-14T03:33:19.206Z,11.60
2018-05-14T03:35:48.784Z,11.60
2018-05-14T03:38:27.936Z,11.70
2018-05-14T03:40:59.057Z,11.70
2018-05-14T03:43:27.746Z,11.60
2018-05-14T03:46:01.078Z,11.60
2018-05-14T03:48:28.805Z,11.60
2018-05-14T03:51:06.696Z,11.60
2018-05-14T03:53:40.581Z,11.60
2018-05-14T03:59:16.031Z,11.60
2018-05-14T04:01:58.468Z,11.60
2018-05-14T04:04:37.864Z,11.60
2018-05-14T04:07:11.613Z,11.50
2018-05-14T04:09:42.497Z,11.60
2018-05-14T04:12:19.445Z,11.60
2018-05-14T04:15:01.636Z,11.60
2018-05-14T04:17:30.345Z,11.70
2018-05-14T04:20:01.225Z,11.70
2018-05-14T04:22:28.967Z,11.60
2018-05-14T04:25:00.110Z,11.60
2018-05-14T04:27:33.416Z,11.60
2018-05-14T04:30:00.952Z,11.60
2018-05-14T04:32:28.630Z,11.60
2018-05-14T04:34:56.205Z,11.70
2018-05-14T04:37:26.653Z,11.60
2018-05-14T04:39:54.397Z,11.60
2018-05-14T04:42:23.109Z,11.60
2018-05-14T04:44:54.535Z,11.60
2018-05-14T04:47:24.154Z,11.70
2018-05-14T04:49:52.825Z,11.80
2018-05-14T04:52:31.932Z,11.80
2018-05-14T04:55:00.691Z,11.80
2018-05-14T04:57:28.411Z,11.90
2018-05-14T05:00:01.083Z,11.90
2018-05-14T05:02:31.941Z,12.00
2018-05-14T05:04:59.723Z,12.00
2018-05-14T05:07:27.465Z,12.00
2018-05-14T05:09:55.228Z,12.00
2018-05-14T05:12:28.788Z,11.90
2018-05-14T05:14:57.531Z,11.90
2018-05-14T05:17:27.129Z,11.90
2018-05-14T05:19:57.401Z,12.00
2018-05-14T05:22:36.194Z,12.00
2018-05-14T05:25:03.934Z,12.10
2018-05-14T05:27:35.374Z,12.10
2018-05-14T05:30:04.086Z,12.20
2018-05-14T05:32:32.437Z,12.10
2018-05-14T05:35:10.934Z,12.10
2018-05-14T05:37:38.490Z,12.00
2018-05-14T05:40:17.275Z,12.00
2018-05-14T05:42:53.261Z,12.10
2018-05-14T05:45:37.923Z,12.10
2018-05-14T05:48:10.940Z,12.20
2018-05-14T05:50:39.652Z,12.10
2018-05-14T05:53:08.320Z,12.10
2018-05-14T05:55:37.963Z,12.10
2018-05-14T05:58:06.616Z,12.10
2018-05-14T06:00:51.232Z,12.20
2018-05-14T06:03:20.979Z,12.20
2018-05-14T06:05:48.663Z,12.20
2018-05-14T06:08:17.347Z,12.20
2018-05-14T06:10:46.037Z,12.20
2018-05-14T06:13:22.065Z,12.20
2018-05-14T06:15:51.737Z,12.30
2018-05-14T06:18:30.329Z,12.30
2018-05-14T06:20:58.626Z,12.20
2018-05-14T06:23:26.363Z,12.10
2018-05-14T06:25:53.862Z,12.20
2018-05-14T06:28:24.971Z,12.20
2018-05-14T06:30:53.885Z,12.30
2018-05-14T06:33:24.501Z,12.30
2018-05-14T06:36:00.209Z,12.30
2018-05-14T06:38:28.927Z,12.20
2018-05-14T06:40:57.605Z,12.10
2018-05-14T06:43:27.247Z,12.10
2018-05-14T06:45:56.524Z,12.30
2018-05-14T06:48:24.022Z,12.20
2018-05-14T06:50:51.799Z,12.30
2018-05-14T06:53:24.145Z,12.30
2018-05-14T06:55:58.989Z,12.40
2018-05-14T06:58:27.203Z,12.50
2018-05-14T07:00:54.562Z,12.40
2018-05-14T07:03:22.299Z,12.50
2018-05-14T07:05:51.778Z,12.50
2018-05-14T07:08:19.309Z,12.50
2018-05-14T07:10:51.409Z,12.40
2018-05-14T07:13:36.243Z,12.40
2018-05-14T07:16:03.975Z,12.50
2018-05-14T07:18:33.819Z,12.60
2018-05-14T07:21:09.139Z,12.50
2018-05-14T07:23:38.639Z,12.50
2018-05-14T07:26:08.153Z,12.60
2018-05-14T07:28:36.686Z,12.80
2018-05-14T07:31:05.600Z,12.80
2018-05-14T07:33:34.475Z,12.70
2018-05-14T07:36:02.548Z,12.70
2018-05-14T07:38:32.140Z,12.80
2018-05-14T07:41:00.832Z,12.70
2018-05-14T07:43:30.141Z,12.80
2018-05-14T07:46:01.604Z,12.80
2018-05-14T07:48:34.277Z,13.00
2018-05-14T07:51:01.800Z,13.00
2018-05-14T07:53:29.481Z,13.10
2018-05-14T07:55:58.871Z,13.20
2018-05-14T07:58:28.401Z,13.30
2018-05-14T08:00:56.135Z,13.30
2018-05-14T08:03:25.258Z,13.30
2018-05-14T08:05:53.627Z,13.30
2018-05-14T08:08:21.290Z,13.30
2018-05-14T08:11:01.065Z,13.40
2018-05-14T08:13:28.571Z,13.50
2018-05-14T08:16:00.558Z,13.40
2018-05-14T08:18:29.579Z,13.40
2018-05-14T08:20:57.145Z,13.40
2018-05-14T08:23:30.305Z,13.50
2018-05-14T08:26:05.737Z,13.50
2018-05-14T08:28:34.609Z,13.50
2018-05-14T08:31:03.135Z,13.40
2018-05-14T08:33:36.131Z,13.40
2018-05-14T08:36:07.989Z,13.50
2018-05-14T08:38:35.969Z,13.60
2018-05-14T08:41:07.107Z,13.70
2018-05-14T08:43:48.926Z,13.80
2018-05-14T08:46:16.700Z,13.80
2018-05-14T08:48:46.376Z,13.70
2018-05-14T08:51:18.433Z,13.80
2018-05-14T08:53:48.279Z,13.80
2018-05-14T08:56:18.612Z,13.90
2018-05-14T08:58:50.351Z,13.90
2018-05-14T09:01:18.941Z,13.90
2018-05-14T09:03:48.393Z,14.00
2018-05-14T09:06:16.141Z,14.00
2018-05-14T09:08:43.939Z,14.10
2018-05-14T09:11:11.621Z,14.00
2018-05-14T09:13:39.129Z,14.10
2018-05-14T09:16:07.836Z,14.20
2018-05-14T09:18:36.678Z,14.30
2018-05-14T09:21:06.085Z,14.20
2018-05-14T09:23:48.835Z,14.20
2018-05-14T09:26:20.309Z,14.20
2018-05-14T09:29:05.553Z,14.40
2018-05-14T09:31:33.085Z,14.50
2018-05-14T09:34:00.595Z,14.80
2018-05-14T09:36:32.286Z,14.70
2018-05-14T09:39:03.373Z,14.80
2018-05-14T09:41:31.823Z,15.00
2018-05-14T09:44:05.423Z,15.10
2018-05-14T09:46:34.723Z,15.10
2018-05-14T09:49:02.460Z,15.10
2018-05-14T09:51:31.210Z,15.30
2018-05-14T09:54:02.393Z,15.40
2018-05-14T09:56:37.845Z,15.70
2018-05-14T09:59:15.317Z,16.00
2018-05-14T10:01:48.946Z,16.30
2018-05-14T10:04:16.698Z,16.60
2018-05-14T10:06:45.796Z,16.60
2018-05-14T10:09:15.736Z,16.30
2018-05-14T10:11:45.546Z,16.90
2018-05-14T10:14:13.044Z,17.00
2018-05-14T10:16:40.754Z,17.10
2018-05-14T10:19:10.387Z,17.30
2018-05-14T10:21:38.844Z,17.80
2018-05-14T10:24:07.535Z,18.00
2018-05-14T10:26:38.275Z,18.10
2018-05-14T10:29:07.897Z,18.00
2018-05-14T10:31:38.352Z,17.70
2018-05-14T10:34:08.061Z,17.60
2018-05-14T10:36:36.083Z,17.70
2018-05-14T10:39:03.703Z,18.00
2018-05-14T10:41:35.405Z,17.80
2018-05-14T10:44:03.329Z,17.90
2018-05-14T10:46:32.082Z,18.20
2018-05-14T10:49:01.720Z,18.40
2018-05-14T10:51:30.371Z,18.40
2018-05-14T10:54:01.223Z,18.60
2018-05-14T10:56:28.857Z,18.50
2018-05-14T10:59:02.936Z,18.90
2018-05-14T11:01:30.663Z,19.00
2018-05-14T11:03:59.523Z,19.00
2018-05-14T11:06:28.061Z,19.10
2018-05-14T11:08:56.745Z,19.20
2018-05-14T11:11:27.963Z,19.30
2018-05-14T11:13:56.704Z,19.40
2018-05-14T11:16:26.659Z,19.80
2018-05-14T11:19:00.975Z,19.70
2018-05-14T11:21:34.285Z,19.40
2018-05-14T11:24:05.160Z,19.60
2018-05-14T11:26:37.425Z,19.80
2018-05-14T11:29:04.945Z,20.10
2018-05-14T11:31:38.237Z,20.10
2018-05-14T11:34:11.241Z,20.30
2018-05-14T11:36:40.857Z,20.30
2018-05-14T11:39:10.443Z,20.20
2018-05-14T11:41:45.910Z,20.30
2018-05-14T11:44:18.276Z,20.30
2018-05-14T11:46:45.816Z,20.30
2018-05-14T11:49:37.864Z,20.40
2018-05-14T11:52:06.461Z,20.70
2018-05-14T11:54:40.046Z,20.60
2018-05-14T11:57:10.194Z,20.60
2018-05-14T11:59:56.835Z,20.70
2018-05-14T12:02:26.523Z,20.80
2018-05-14T12:04:56.769Z,21.10
2018-05-14T12:07:26.246Z,21.10
2018-05-14T12:09:54.616Z,21.10
2018-05-14T12:12:25.232Z,21.10
2018-05-14T12:15:00.854Z,21.20
2018-05-14T12:17:28.374Z,21.40
2018-05-14T12:19:58.067Z,21.80
2018-05-14T12:22:25.712Z,22.00
2018-05-14T12:24:54.426Z,22.10
2018-05-14T12:27:29.522Z,22.20
2018-05-14T12:29:59.176Z,22.30
2018-05-14T12:32:35.180Z,22.50
2018-05-14T12:35:10.200Z,22.50
2018-05-14T12:37:38.885Z,22.40
2018-05-14T12:40:06.919Z,22.40
2018-05-14T12:42:38.280Z,22.70
2018-05-14T12:45:07.088Z,22.70
2018-05-14T12:47:35.685Z,22.70
2018-05-14T12:50:04.276Z,22.60
2018-05-14T12:52:32.739Z,22.60
2018-05-14T12:55:00.462Z,22.60
2018-05-14T12:57:27.959Z,22.70
2018-05-14T12:59:55.704Z,22.70
2018-05-14T13:02:24.996Z,22.70
2018-05-14T13:04:56.462Z,22.70
2018-05-14T13:07:23.996Z,22.60
2018-05-14T13:09:51.675Z,22.70
2018-05-14T13:12:19.200Z,22.80
2018-05-14T13:14:47.837Z,23.00
2018-05-14T13:17:16.190Z,23.00
2018-05-14T13:19:44.890Z,23.10
2018-05-14T13:22:31.011Z,23.10
2018-05-14T13:25:18.580Z,23.30
2018-05-14T13:27:47.205Z,23.10
2018-05-14T13:30:28.115Z,23.30
2018-05-14T13:32:55.640Z,23.50
2018-05-14T13:35:28.645Z,23.60
2018-05-14T13:37:57.416Z,23.70
2018-05-14T13:40:24.816Z,23.70
2018-05-14T13:42:52.628Z,23.60
2018-05-14T13:45:21.899Z,23.80
2018-05-14T13:47:50.549Z,23.80
2018-05-14T13:50:36.987Z,23.90
2018-05-14T13:53:23.770Z,23.80
2018-05-14T13:55:56.520Z,23.90
2018-05-14T13:58:35.285Z,24.00
2018-05-14T14:01:03.735Z,24.00
2018-05-14T14:03:35.779Z,24.00
2018-05-14T14:06:17.005Z,24.00
2018-05-14T14:08:44.564Z,24.10
2018-05-14T14:11:16.313Z,24.10
2018-05-14T14:13:49.289Z,24.20
2018-05-14T14:16:21.360Z,24.30
2018-05-14T14:18:54.929Z,24.20
2018-05-14T14:21:41.680Z,24.20
2018-05-14T14:24:10.181Z,24.40
2018-05-14T14:26:50.416Z,24.50
2018-05-14T14:29:23.817Z,24.50
2018-05-14T14:31:56.489Z,24.50
2018-05-14T14:34:26.167Z,24.50
2018-05-14T14:37:00.863Z,24.40
2018-05-14T14:39:30.639Z,24.40
2018-05-14T14:42:09.436Z,24.60
2018-05-14T14:44:42.351Z,24.50
2018-05-14T14:47:27.255Z,24.50
2018-05-14T14:50:00.599Z,24.40
2018-05-14T14:52:30.285Z,24.50
2018-05-14T14:54:58.083Z,24.70
2018-05-14T14:57:37.091Z,24.70
2018-05-14T15:00:08.552Z,24.60
2018-05-14T15:02:50.102Z,24.90
2018-05-14T15:05:20.070Z,24.80
2018-05-14T15:07:48.757Z,24.80
2018-05-14T15:10:17.436Z,24.70
2018-05-14T15:13:02.968Z,24.70
2018-05-14T15:15:31.423Z,24.80
2018-05-14T15:18:03.193Z,24.90
2018-05-14T15:20:31.161Z,24.80
2018-05-14T15:22:58.711Z,24.80
2018-05-14T15:25:32.263Z,24.90
2018-05-14T15:28:06.074Z,25.00
2018-05-14T15:30:33.679Z,25.00
2018-05-14T15:33:14.943Z,25.20
2018-05-14T15:35:46.416Z,25.20
2018-05-14T15:38:18.496Z,25.10
2018-05-14T15:40:52.063Z,25.00
2018-05-14T15:43:33.585Z,25.20
2018-05-14T15:46:05.442Z,25.20
2018-05-14T15:48:32.984Z,25.20
2018-05-14T15:51:04.958Z,25.30
2018-05-14T15:53:35.171Z,25.30
2018-05-14T15:56:02.751Z,25.30
2018-05-14T15:58:41.423Z,25.30
2018-05-14T16:01:11.075Z,25.30
2018-05-14T16:06:32.111Z,25.20
2018-05-14T16:09:10.882Z,25.40
2018-05-14T16:11:50.629Z,25.40
2018-05-14T16:14:28.230Z,25.50
2018-05-14T16:16:59.415Z,25.60
2018-05-14T16:19:28.099Z,25.60
2018-05-14T16:22:00.160Z,25.50
2018-05-14T16:24:30.733Z,25.60
2018-05-14T16:27:02.162Z,25.60
2018-05-14T16:29:33.007Z,25.50
2018-05-14T16:32:04.730Z,25.40
2018-05-14T16:34:32.254Z,25.30
2018-05-14T16:37:00.894Z,25.30
2018-05-14T16:39:28.398Z,25.30
2018-05-14T16:41:56.128Z,25.40
2018-05-14T16:44:23.625Z,25.30
2018-05-14T16:46:51.311Z,25.30
2018-05-14T16:49:22.482Z,25.40
2018-05-14T16:51:52.136Z,25.40
2018-05-14T16:54:20.754Z,25.30
2018-05-14T16:56:48.266Z,25.40
2018-05-14T16:59:19.709Z,25.30
2018-05-14T17:01:50.516Z,25.30
2018-05-14T17:04:19.237Z,25.30
2018-05-14T17:06:51.283Z,25.40
2018-05-14T17:09:18.791Z,25.30
2018-05-14T17:11:47.144Z,25.30
2018-05-14T17:14:14.890Z,25.30
2018-05-14T17:16:48.199Z,25.30
2018-05-14T17:19:21.493Z,25.40
2018-05-14T17:21:54.172Z,25.40
2018-05-14T17:24:22.522Z,25.40
2018-05-14T17:26:50.034Z,25.40
2018-05-14T17:29:21.760Z,25.40
2018-05-14T17:31:50.492Z,25.40
2018-05-14T17:34:19.119Z,25.30
2018-05-14T17:36:48.729Z,25.20
2018-05-14T17:39:22.347Z,25.30
2018-05-14T17:41:51.025Z,25.20
2018-05-14T17:44:20.644Z,25.20
2018-05-14T17:46:49.016Z,25.00
2018-05-14T17:49:24.154Z,25.00
2018-05-14T17:52:02.038Z,25.00
2018-05-14T17:54:33.271Z,24.90
2018-05-14T17:57:02.829Z,24.90
2018-05-14T17:59:36.875Z,24.80
2018-05-14T18:02:08.224Z,24.80
2018-05-14T18:04:36.908Z,24.70
2018-05-14T18:07:05.255Z,24.50
2018-05-14T18:09:36.738Z,24.50
2018-05-14T18:12:14.264Z,24.50
2018-05-14T18:14:46.347Z,24.40
2018-05-14T18:17:15.992Z,24.30
2018-05-14T18:19:51.274Z,24.20
2018-05-14T18:22:26.102Z,24.10
2018-05-14T18:25:01.589Z,24.00
2018-05-14T18:27:33.778Z,23.90
2018-05-14T18:30:08.175Z,23.70
2018-05-14T18:32:36.689Z,23.60
2018-05-14T18:35:10.004Z,23.50
2018-05-14T18:37:44.856Z,23.40
2018-05-14T18:40:16.226Z,23.30
2018-05-14T18:42:43.852Z,23.20
2018-05-14T18:45:30.551Z,23.10
2018-05-14T18:48:01.642Z,23.00
2018-05-14T18:50:31.275Z,22.90
2018-05-14T18:52:59.967Z,22.90
2018-05-14T18:55:28.650Z,22.90
2018-05-14T18:57:58.305Z,22.80
2018-05-14T19:00:32.439Z,22.70
2018-05-14T19:02:59.934Z,22.50
2018-05-14T19:05:32.017Z,22.40
2018-05-14T19:08:03.737Z,22.30
2018-05-14T19:10:41.139Z,22.30
2018-05-14T19:13:10.684Z,22.00
2018-05-14T19:15:44.175Z,22.00
2018-05-14T19:18:15.477Z,22.00
2018-05-14T19:20:43.305Z,21.90
2018-05-14T19:23:22.315Z,21.80
2018-05-14T19:25:53.748Z,21.70
2018-05-14T19:28:32.391Z,21.70
2018-05-14T19:31:00.051Z,21.70
2018-05-14T19:33:34.709Z,21.70
2018-05-14T19:36:05.776Z,21.60
2018-05-14T19:38:33.481Z,21.60
2018-05-14T19:41:01.237Z,21.60
2018-05-14T19:43:29.975Z,21.60
2018-05-14T19:45:58.620Z,21.50
2018-05-14T19:48:28.219Z,21.50
2018-05-14T19:50:55.798Z,21.50
2018-05-14T19:53:23.442Z,21.60
2018-05-14T19:55:53.147Z,21.50
2018-05-14T19:58:23.568Z,21.30
2018-05-14T20:00:52.310Z,21.30
2018-05-14T20:03:20.045Z,21.30
2018-05-14T20:05:48.709Z,21.20
2018-05-14T20:08:22.936Z,21.20
2018-05-14T20:10:54.988Z,21.10
2018-05-14T20:13:27.090Z,21.10
2018-05-14T20:15:54.840Z,21.20
2018-05-14T20:18:23.206Z,21.10
2018-05-14T20:20:53.018Z,21.00
2018-05-14T20:23:21.547Z,21.10
2018-05-14T20:25:50.203Z,21.00
2018-05-14T20:28:21.039Z,20.90
2018-05-14T20:30:53.481Z,20.80
2018-05-14T20:33:24.266Z,20.80
2018-05-14T20:35:52.012Z,20.80
2018-05-14T20:38:19.539Z,20.70
2018-05-14T20:40:47.265Z,20.70
2018-05-14T20:43:27.604Z,20.90
2018-05-14T20:46:01.540Z,20.70
2018-05-14T20:48:47.505Z,20.60
2018-05-14T20:51:22.216Z,20.40
2018-05-14T20:53:54.602Z,20.40
2018-05-14T20:56:22.128Z,20.30
2018-05-14T20:58:49.818Z,20.20
2018-05-14T21:01:22.864Z,20.20
2018-05-14T21:03:50.629Z,20.20
2018-05-14T21:06:21.755Z,20.20
2018-05-14T21:08:51.368Z,20.10
2018-05-14T21:11:22.515Z,20.00
2018-05-14T21:13:56.412Z,19.90
2018-05-14T21:16:25.077Z,19.80
2018-05-14T21:18:53.430Z,19.60
2018-05-14T21:21:22.146Z,19.60
2018-05-14T21:23:53.272Z,19.60
2018-05-14T21:26:24.115Z,19.50
2018-05-14T21:28:57.700Z,19.50
2018-05-14T21:31:38.392Z,19.50
2018-05-14T21:36:59.169Z,19.40
2018-05-14T21:39:27.104Z,19.40
2018-05-14T21:41:55.549Z,19.30
2018-05-14T21:44:23.069Z,19.20
2018-05-14T21:46:51.403Z,19.20
2018-05-14T21:49:24.085Z,19.20
2018-05-14T21:51:57.679Z,19.20
2018-05-14T21:54:25.187Z,19.20
2018-05-14T21:57:00.578Z,19.10
2018-05-14T21:59:31.739Z,19.00
2018-05-14T22:02:04.772Z,19.00
2018-05-14T22:04:32.486Z,19.00
2018-05-14T22:07:07.056Z,18.90
2018-05-14T22:09:35.457Z,18.70
2018-05-14T22:12:02.938Z,18.70
2018-05-14T22:14:30.646Z,18.60
2018-05-14T22:16:58.408Z,18.50
2018-05-14T22:19:27.052Z,18.40
2018-05-14T22:21:58.530Z,18.30
2018-05-14T22:24:40.036Z,18.20
2018-05-14T22:27:07.598Z,18.20
2018-05-14T22:29:36.258Z,18.20
2018-05-14T22:32:07.115Z,18.20
2018-05-14T22:34:35.784Z,18.20
2018-05-14T22:37:10.906Z,18.20
2018-05-14T22:39:42.362Z,18.20
2018-05-14T22:42:13.581Z,18.20
2018-05-14T22:44:43.122Z,18.20
2018-05-14T22:47:17.026Z,18.10
2018-05-14T22:49:54.904Z,18.00
2018-05-14T22:52:23.650Z,18.00
2018-05-14T22:54:51.998Z,18.00
2018-05-14T22:57:20.698Z,17.90
2018-05-14T22:59:48.236Z,17.90
2018-05-14T23:02:15.906Z,17.90
2018-05-14T23:04:43.412Z,17.90
2018-05-14T23:07:11.158Z,17.90
2018-05-14T23:09:41.384Z,18.00
2018-05-14T23:12:15.286Z,18.00
2018-05-14T23:14:48.847Z,18.00
2018-05-14T23:17:21.260Z,18.10
2018-05-14T23:20:08.124Z,18.20
2018-05-14T23:22:41.496Z,18.20
2018-05-14T23:25:09.134Z,18.20
2018-05-14T23:27:37.487Z,18.20
2018-05-14T23:30:11.714Z,18.10
2018-05-14T23:32:46.520Z,18.10
2018-05-14T23:35:15.263Z,18.00
2018-05-14T23:37:46.678Z,18.00
2018-05-14T23:40:14.196Z,17.90
2018-05-14T23:42:42.870Z,17.90
2018-05-14T23:45:13.692Z,17.90
2018-05-14T23:47:48.509Z,17.90
2018-05-14T23:50:29.106Z,17.90
2018-05-14T23:53:03.380Z,17.80
2018-05-14T23:55:44.036Z,17.70
2018-05-14T23:58:15.498Z,17.70
